Fall River, Kansas
Current Conditions -  °F | °C
As of 6:52 PM on Wednesday 22 Oct 2014 (Local Time) from KCNU Reporting Station
Clear Clear  
Wind Chill: 68°   Ceiling: Unl
Heat Index: 68°   Visibility: 10mi
Dew Point: 58°   Wind: 7mph
Humidity: 70%   Direction: 130°SE
Pressure: 30.09"   Gusts: NA
Location:  37.61°N, 96.03°W
Report Text: KCNU 222352Z AUTO 13006KT 10SM CLR 20/14 A3009 RMK AO2 SLP183 T02000144 10256 20194 55003
Loading
Personal Weather Stations






























Interactive Weather Map
Tropical Storm Tracking
New forecast layout! Learn more

10-Day Weather Forecast

Advertisements
Track Severe Weather on mobile